sensor_id;sensor_type;location;lat;lon;timestamp;temperature;humidity
7588;DHT22;3835;48.850;8.938;2023-08-20T00:01:21;21.00;99.90
7588;DHT22;3835;48.850;8.938;2023-08-20T00:03:50;21.00;99.90
7588;DHT22;3835;48.850;8.938;2023-08-20T00:06:18;21.10;99.90
7588;DHT22;3835;48.850;8.938;2023-08-20T00:08:45;21.10;99.90
7588;DHT22;3835;48.850;8.938;2023-08-20T00:11:15;21.10;99.90
7588;DHT22;3835;48.850;8.938;2023-08-20T00:13:45;21.10;99.90
7588;DHT22;3835;48.850;8.938;2023-08-20T00:16:13;21.20;99.90
7588;DHT22;3835;48.850;8.938;2023-08-20T00:18:44;21.20;99.90
7588;DHT22;3835;48.850;8.938;2023-08-20T00:21:17;21.20;99.90
7588;DHT22;3835;48.850;8.938;2023-08-20T00:23:46;21.20;99.90
7588;DHT22;3835;48.850;8.938;2023-08-20T00:26:14;21.20;99.90
7588;DHT22;3835;48.850;8.938;2023-08-20T00:28:42;21.20;99.90
7588;DHT22;3835;48.850;8.938;2023-08-20T00:31:09;21.20;99.90
7588;DHT22;3835;48.850;8.938;2023-08-20T00:33:36;21.20;99.90
7588;DHT22;3835;48.850;8.938;2023-08-20T00:36:06;21.20;99.90
7588;DHT22;3835;48.850;8.938;2023-08-20T00:38:36;21.10;99.90
7588;DHT22;3835;48.850;8.938;2023-08-20T00:41:02;21.10;99.90
7588;DHT22;3835;48.850;8.938;2023-08-20T00:43:30;21.00;99.90
7588;DHT22;3835;48.850;8.938;2023-08-20T00:45:59;21.00;99.90
7588;DHT22;3835;48.850;8.938;2023-08-20T00:48:27;21.00;99.90
7588;DHT22;3835;48.850;8.938;2023-08-20T00:50:55;21.00;99.90
7588;DHT22;3835;48.850;8.938;2023-08-20T00:53:27;21.00;99.90
7588;DHT22;3835;48.850;8.938;2023-08-20T00:55:58;21.00;99.90
7588;DHT22;3835;48.850;8.938;2023-08-20T00:58:26;21.00;99.90
7588;DHT22;3835;48.850;8.938;2023-08-20T01:00:54;21.00;99.90
7588;DHT22;3835;48.850;8.938;2023-08-20T01:03:22;21.10;99.90
7588;DHT22;3835;48.850;8.938;2023-08-20T01:06:01;21.10;99.90
7588;DHT22;3835;48.850;8.938;2023-08-20T01:08:40;21.10;99.90
7588;DHT22;3835;48.850;8.938;2023-08-20T01:11:16;21.10;99.90
7588;DHT22;3835;48.850;8.938;2023-08-20T01:13:49;21.10;99.90
7588;DHT22;3835;48.850;8.938;2023-08-20T01:16:21;21.10;99.90
7588;DHT22;3835;48.850;8.938;2023-08-20T01:18:49;21.10;99.90
7588;DHT22;3835;48.850;8.938;2023-08-20T01:21:26;21.00;99.90
7588;DHT22;3835;48.850;8.938;2023-08-20T01:24:10;21.10;99.90
7588;DHT22;3835;48.850;8.938;2023-08-20T01:26:56;21.10;99.90
7588;DHT22;3835;48.850;8.938;2023-08-20T01:29:25;21.10;99.90
7588;DHT22;3835;48.850;8.938;2023-08-20T01:31:53;21.00;99.90
7588;DHT22;3835;48.850;8.938;2023-08-20T01:34:21;21.00;99.90
7588;DHT22;3835;48.850;8.938;2023-08-20T01:36:48;21.00;99.90
7588;DHT22;3835;48.850;8.938;2023-08-20T01:39:14;20.90;99.90
7588;DHT22;3835;48.850;8.938;2023-08-20T01:41:42;20.90;99.90
7588;DHT22;3835;48.850;8.938;2023-08-20T01:44:08;20.90;99.90
7588;DHT22;3835;48.850;8.938;2023-08-20T01:46:36;20.90;99.90
7588;DHT22;3835;48.850;8.938;2023-08-20T01:49:03;20.90;99.90
7588;DHT22;3835;48.850;8.938;2023-08-20T01:51:30;20.90;99.90
7588;DHT22;3835;48.850;8.938;2023-08-20T01:53:57;21.00;99.90
7588;DHT22;3835;48.850;8.938;2023-08-20T01:56:24;21.00;99.90
7588;DHT22;3835;48.850;8.938;2023-08-20T01:58:50;20.90;99.90
7588;DHT22;3835;48.850;8.938;2023-08-20T02:01:17;20.90;99.90
7588;DHT22;3835;48.850;8.938;2023-08-20T02:03:46;20.80;99.90
7588;DHT22;3835;48.850;8.938;2023-08-20T02:06:12;20.80;99.90
7588;DHT22;3835;48.850;8.938;2023-08-20T02:08:39;20.80;99.90
7588;DHT22;3835;48.850;8.938;2023-08-20T02:11:06;20.70;99.90
7588;DHT22;3835;48.850;8.938;2023-08-20T02:13:33;20.70;99.90
7588;DHT22;3835;48.850;8.938;2023-08-20T02:16:01;20.70;99.90
7588;DHT22;3835;48.850;8.938;2023-08-20T02:18:28;20.60;99.90
7588;DHT22;3835;48.850;8.938;2023-08-20T02:20:56;20.60;99.90
7588;DHT22;3835;48.850;8.938;2023-08-20T02:23:23;20.60;99.90
7588;DHT22;3835;48.850;8.938;2023-08-20T02:25:50;20.50;99.90
7588;DHT22;3835;48.850;8.938;2023-08-20T02:28:16;20.50;99.90
7588;DHT22;3835;48.850;8.938;2023-08-20T02:30:44;20.50;99.90
7588;DHT22;3835;48.850;8.938;2023-08-20T02:33:11;20.50;99.90
7588;DHT22;3835;48.850;8.938;2023-08-20T02:35:38;20.50;99.90
7588;DHT22;3835;48.850;8.938;2023-08-20T02:38:07;20.50;99.90
7588;DHT22;3835;48.850;8.938;2023-08-20T02:40:39;20.40;99.90
7588;DHT22;3835;48.850;8.938;2023-08-20T02:43:06;20.40;99.90
7588;DHT22;3835;48.850;8.938;2023-08-20T02:45:38;20.40;99.90
7588;DHT22;3835;48.850;8.938;2023-08-20T02:48:05;20.30;99.90
7588;DHT22;3835;48.850;8.938;2023-08-20T02:50:32;20.30;99.90
7588;DHT22;3835;48.850;8.938;2023-08-20T02:52:59;20.20;99.90
7588;DHT22;3835;48.850;8.938;2023-08-20T02:55:27;20.20;99.90
7588;DHT22;3835;48.850;8.938;2023-08-20T02:57:55;20.20;99.90
7588;DHT22;3835;48.850;8.938;2023-08-20T03:00:22;20.20;99.90
7588;DHT22;3835;48.850;8.938;2023-08-20T03:02:48;20.20;99.90
7588;DHT22;3835;48.850;8.938;2023-08-20T03:05:15;20.10;99.90
7588;DHT22;3835;48.850;8.938;2023-08-20T03:07:42;20.20;99.90
7588;DHT22;3835;48.850;8.938;2023-08-20T03:10:09;20.10;99.90
7588;DHT22;3835;48.850;8.938;2023-08-20T03:12:37;20.10;99.90
7588;DHT22;3835;48.850;8.938;2023-08-20T03:15:04;20.10;99.90
7588;DHT22;3835;48.850;8.938;2023-08-20T03:17:31;20.00;99.90
7588;DHT22;3835;48.850;8.938;2023-08-20T03:19:59;20.00;99.90
7588;DHT22;3835;48.850;8.938;2023-08-20T03:22:27;20.00;99.90
7588;DHT22;3835;48.850;8.938;2023-08-20T03:24:54;20.00;99.90
7588;DHT22;3835;48.850;8.938;2023-08-20T03:27:21;19.90;99.90
7588;DHT22;3835;48.850;8.938;2023-08-20T03:29:49;19.90;99.90
7588;DHT22;3835;48.850;8.938;2023-08-20T03:32:15;19.90;99.90
7588;DHT22;3835;48.850;8.938;2023-08-20T03:34:42;19.80;99.90
7588;DHT22;3835;48.850;8.938;2023-08-20T03:37:09;19.80;99.90
7588;DHT22;3835;48.850;8.938;2023-08-20T03:39:36;19.80;99.90
7588;DHT22;3835;48.850;8.938;2023-08-20T03:42:03;19.80;99.90
7588;DHT22;3835;48.850;8.938;2023-08-20T03:44:31;19.70;99.90
7588;DHT22;3835;48.850;8.938;2023-08-20T03:46:59;19.70;99.90
7588;DHT22;3835;48.850;8.938;2023-08-20T03:49:25;19.70;99.90
7588;DHT22;3835;48.850;8.938;2023-08-20T03:51:52;19.70;99.90
7588;DHT22;3835;48.850;8.938;2023-08-20T03:54:19;19.70;99.90
7588;DHT22;3835;48.850;8.938;2023-08-20T03:56:46;19.70;99.90
7588;DHT22;3835;48.850;8.938;2023-08-20T03:59:12;19.60;99.90
7588;DHT22;3835;48.850;8.938;2023-08-20T04:01:39;19.60;99.90
7588;DHT22;3835;48.850;8.938;2023-08-20T04:04:08;19.60;99.90
7588;DHT22;3835;48.850;8.938;2023-08-20T04:06:35;19.60;99.90
7588;DHT22;3835;48.850;8.938;2023-08-20T04:09:02;19.60;99.90
7588;DHT22;3835;48.850;8.938;2023-08-20T04:11:29;19.70;99.90
7588;DHT22;3835;48.850;8.938;2023-08-20T04:13:56;19.60;99.90
7588;DHT22;3835;48.850;8.938;2023-08-20T04:16:22;19.60;99.90
7588;DHT22;3835;48.850;8.938;2023-08-20T04:18:49;19.60;99.90
7588;DHT22;3835;48.850;8.938;2023-08-20T04:21:17;19.50;99.90
7588;DHT22;3835;48.850;8.938;2023-08-20T04:23:44;19.60;99.90
7588;DHT22;3835;48.850;8.938;2023-08-20T04:26:11;19.60;99.90
7588;DHT22;3835;48.850;8.938;2023-08-20T04:28:38;19.50;99.90
7588;DHT22;3835;48.850;8.938;2023-08-20T04:31:05;19.50;99.90
7588;DHT22;3835;48.850;8.938;2023-08-20T04:33:31;19.50;99.90
7588;DHT22;3835;48.850;8.938;2023-08-20T04:35:58;19.50;99.90
7588;DHT22;3835;48.850;8.938;2023-08-20T04:38:26;19.50;99.90
7588;DHT22;3835;48.850;8.938;2023-08-20T04:40:53;19.50;99.90
7588;DHT22;3835;48.850;8.938;2023-08-20T04:43:20;19.60;99.90
7588;DHT22;3835;48.850;8.938;2023-08-20T04:45:46;19.70;99.90
7588;DHT22;3835;48.850;8.938;2023-08-20T04:48:13;19.70;99.90
7588;DHT22;3835;48.850;8.938;2023-08-20T04:50:40;19.80;99.90
7588;DHT22;3835;48.850;8.938;2023-08-20T04:53:06;19.80;99.90
7588;DHT22;3835;48.850;8.938;2023-08-20T04:55:35;19.90;99.90
7588;DHT22;3835;48.850;8.938;2023-08-20T04:58:01;20.00;99.90
7588;DHT22;3835;48.850;8.938;2023-08-20T05:00:28;20.00;99.90
7588;DHT22;3835;48.850;8.938;2023-08-20T05:02:55;20.10;99.90
7588;DHT22;3835;48.850;8.938;2023-08-20T05:05:22;20.20;99.90
7588;DHT22;3835;48.850;8.938;2023-08-20T05:07:49;20.40;99.90
7588;DHT22;3835;48.850;8.938;2023-08-20T05:10:16;20.50;99.90
7588;DHT22;3835;48.850;8.938;2023-08-20T05:12:44;20.60;99.90
7588;DHT22;3835;48.850;8.938;2023-08-20T05:15:11;20.70;99.90
7588;DHT22;3835;48.850;8.938;2023-08-20T05:17:38;20.70;99.90
7588;DHT22;3835;48.850;8.938;2023-08-20T05:20:05;20.80;99.90
7588;DHT22;3835;48.850;8.938;2023-08-20T05:22:33;21.00;99.90
7588;DHT22;3835;48.850;8.938;2023-08-20T05:25:00;21.10;99.90
7588;DHT22;3835;48.850;8.938;2023-08-20T05:27:27;20.90;99.90
7588;DHT22;3835;48.850;8.938;2023-08-20T05:29:55;20.90;99.90
7588;DHT22;3835;48.850;8.938;2023-08-20T05:32:22;20.80;99.90
7588;DHT22;3835;48.850;8.938;2023-08-20T05:34:48;20.90;99.90
7588;DHT22;3835;48.850;8.938;2023-08-20T05:37:15;21.20;99.90
7588;DHT22;3835;48.850;8.938;2023-08-20T05:39:43;21.50;99.90
7588;DHT22;3835;48.850;8.938;2023-08-20T05:42:10;21.70;99.90
7588;DHT22;3835;48.850;8.938;2023-08-20T05:44:37;21.90;99.90
7588;DHT22;3835;48.850;8.938;2023-08-20T05:47:05;22.00;99.90
7588;DHT22;3835;48.850;8.938;2023-08-20T05:49:32;21.90;99.90
7588;DHT22;3835;48.850;8.938;2023-08-20T05:51:58;21.80;99.90
7588;DHT22;3835;48.850;8.938;2023-08-20T05:54:25;22.10;99.90
7588;DHT22;3835;48.850;8.938;2023-08-20T05:56:52;22.30;99.90
7588;DHT22;3835;48.850;8.938;2023-08-20T05:59:19;22.40;99.90
7588;DHT22;3835;48.850;8.938;2023-08-20T06:01:46;22.50;99.90
7588;DHT22;3835;48.850;8.938;2023-08-20T06:04:14;22.60;99.90
7588;DHT22;3835;48.850;8.938;2023-08-20T06:06:40;22.70;99.90
7588;DHT22;3835;48.850;8.938;2023-08-20T06:09:07;22.70;99.90
7588;DHT22;3835;48.850;8.938;2023-08-20T06:11:34;23.00;99.90
7588;DHT22;3835;48.850;8.938;2023-08-20T06:14:01;23.30;99.90
7588;DHT22;3835;48.850;8.938;2023-08-20T06:16:28;23.40;99.90
7588;DHT22;3835;48.850;8.938;2023-08-20T06:18:54;23.50;99.90
7588;DHT22;3835;48.850;8.938;2023-08-20T06:21:23;23.60;99.90
7588;DHT22;3835;48.850;8.938;2023-08-20T06:23:49;23.60;99.90
7588;DHT22;3835;48.850;8.938;2023-08-20T06:26:16;23.60;99.90
7588;DHT22;3835;48.850;8.938;2023-08-20T06:28:43;23.70;99.90
7588;DHT22;3835;48.850;8.938;2023-08-20T06:31:10;23.90;99.90
7588;DHT22;3835;48.850;8.938;2023-08-20T06:33:36;24.20;99.90
7588;DHT22;3835;48.850;8.938;2023-08-20T06:36:04;24.30;99.90
7588;DHT22;3835;48.850;8.938;2023-08-20T06:38:32;24.40;99.90
7588;DHT22;3835;48.850;8.938;2023-08-20T06:40:59;24.60;99.90
7588;DHT22;3835;48.850;8.938;2023-08-20T06:43:25;24.50;99.90
7588;DHT22;3835;48.850;8.938;2023-08-20T06:45:52;24.50;99.90
7588;DHT22;3835;48.850;8.938;2023-08-20T06:48:19;24.40;99.90
7588;DHT22;3835;48.850;8.938;2023-08-20T06:50:47;24.40;99.90
7588;DHT22;3835;48.850;8.938;2023-08-20T06:53:14;24.40;99.90
7588;DHT22;3835;48.850;8.938;2023-08-20T06:55:42;24.50;99.90
7588;DHT22;3835;48.850;8.938;2023-08-20T06:58:09;24.40;99.90
7588;DHT22;3835;48.850;8.938;2023-08-20T07:00:36;24.30;99.90
7588;DHT22;3835;48.850;8.938;2023-08-20T07:03:03;24.30;99.90
7588;DHT22;3835;48.850;8.938;2023-08-20T07:05:30;24.40;99.90
7588;DHT22;3835;48.850;8.938;2023-08-20T07:07:57;24.60;99.90
7588;DHT22;3835;48.850;8.938;2023-08-20T07:10:23;24.70;99.90
7588;DHT22;3835;48.850;8.938;2023-08-20T07:12:51;24.70;99.90
7588;DHT22;3835;48.850;8.938;2023-08-20T07:15:18;24.90;99.90
7588;DHT22;3835;48.850;8.938;2023-08-20T07:17:45;25.00;99.90
7588;DHT22;3835;48.850;8.938;2023-08-20T07:20:12;24.90;99.90
7588;DHT22;3835;48.850;8.938;2023-08-20T07:22:38;24.90;99.90
7588;DHT22;3835;48.850;8.938;2023-08-20T07:25:05;25.00;99.90
7588;DHT22;3835;48.850;8.938;2023-08-20T07:27:33;25.10;99.90
7588;DHT22;3835;48.850;8.938;2023-08-20T07:32:29;25.50;99.90
7588;DHT22;3835;48.850;8.938;2023-08-20T07:34:56;25.60;99.90
7588;DHT22;3835;48.850;8.938;2023-08-20T07:37:22;25.70;99.90
7588;DHT22;3835;48.850;8.938;2023-08-20T07:39:49;25.80;99.90
7588;DHT22;3835;48.850;8.938;2023-08-20T07:42:16;25.70;99.90
7588;DHT22;3835;48.850;8.938;2023-08-20T07:44:43;25.70;99.90
7588;DHT22;3835;48.850;8.938;2023-08-20T07:47:10;25.70;99.90
7588;DHT22;3835;48.850;8.938;2023-08-20T07:49:39;25.80;99.90
7588;DHT22;3835;48.850;8.938;2023-08-20T07:52:06;25.80;99.90
7588;DHT22;3835;48.850;8.938;2023-08-20T07:54:32;25.80;99.90
7588;DHT22;3835;48.850;8.938;2023-08-20T07:56:59;25.80;99.90
7588;DHT22;3835;48.850;8.938;2023-08-20T07:59:26;25.70;99.90
7588;DHT22;3835;48.850;8.938;2023-08-20T08:01:53;25.90;99.90
7588;DHT22;3835;48.850;8.938;2023-08-20T08:04:19;25.80;99.90
7588;DHT22;3835;48.850;8.938;2023-08-20T08:06:47;25.80;99.90
7588;DHT22;3835;48.850;8.938;2023-08-20T08:09:25;25.90;99.90
7588;DHT22;3835;48.850;8.938;2023-08-20T08:11:52;25.90;99.90
7588;DHT22;3835;48.850;8.938;2023-08-20T08:14:19;26.00;99.90
7588;DHT22;3835;48.850;8.938;2023-08-20T08:16:46;26.00;99.90
7588;DHT22;3835;48.850;8.938;2023-08-20T08:19:13;26.00;99.90
7588;DHT22;3835;48.850;8.938;2023-08-20T08:21:40;26.00;99.90
7588;DHT22;3835;48.850;8.938;2023-08-20T08:24:10;26.20;99.90
7588;DHT22;3835;48.850;8.938;2023-08-20T08:26:37;26.20;99.90
7588;DHT22;3835;48.850;8.938;2023-08-20T08:29:04;26.30;99.90
7588;DHT22;3835;48.850;8.938;2023-08-20T08:31:32;26.40;99.90
7588;DHT22;3835;48.850;8.938;2023-08-20T08:33:59;26.40;99.90
7588;DHT22;3835;48.850;8.938;2023-08-20T08:36:26;26.40;99.90
7588;DHT22;3835;48.850;8.938;2023-08-20T08:38:53;26.60;99.90
7588;DHT22;3835;48.850;8.938;2023-08-20T08:41:22;26.70;99.90
7588;DHT22;3835;48.850;8.938;2023-08-20T08:43:50;26.80;99.90
7588;DHT22;3835;48.850;8.938;2023-08-20T08:46:17;26.80;99.90
7588;DHT22;3835;48.850;8.938;2023-08-20T08:48:46;26.80;99.90
7588;DHT22;3835;48.850;8.938;2023-08-20T08:51:13;26.80;99.90
7588;DHT22;3835;48.850;8.938;2023-08-20T08:53:42;26.80;99.90
7588;DHT22;3835;48.850;8.938;2023-08-20T08:56:10;26.80;99.90
7588;DHT22;3835;48.850;8.938;2023-08-20T08:58:38;26.80;99.90
7588;DHT22;3835;48.850;8.938;2023-08-20T09:01:05;26.90;99.90
7588;DHT22;3835;48.850;8.938;2023-08-20T09:03:31;27.00;99.90
7588;DHT22;3835;48.850;8.938;2023-08-20T09:05:59;27.20;99.90
7588;DHT22;3835;48.850;8.938;2023-08-20T09:08:27;27.20;99.90
7588;DHT22;3835;48.850;8.938;2023-08-20T09:10:55;27.40;99.90
7588;DHT22;3835;48.850;8.938;2023-08-20T09:13:23;27.50;99.90
7588;DHT22;3835;48.850;8.938;2023-08-20T09:15:52;27.60;99.90
7588;DHT22;3835;48.850;8.938;2023-08-20T09:18:20;27.80;99.90
7588;DHT22;3835;48.850;8.938;2023-08-20T09:20:48;27.70;99.90
7588;DHT22;3835;48.850;8.938;2023-08-20T09:23:15;27.60;99.90
7588;DHT22;3835;48.850;8.938;2023-08-20T09:25:42;27.40;99.90
7588;DHT22;3835;48.850;8.938;2023-08-20T09:28:10;27.30;99.90
7588;DHT22;3835;48.850;8.938;2023-08-20T09:30:37;27.20;99.90
7588;DHT22;3835;48.850;8.938;2023-08-20T09:33:10;27.20;99.90
7588;DHT22;3835;48.850;8.938;2023-08-20T09:35:39;27.20;99.90
7588;DHT22;3835;48.850;8.938;2023-08-20T09:38:14;27.30;99.90
7588;DHT22;3835;48.850;8.938;2023-08-20T09:40:41;27.30;99.90
7588;DHT22;3835;48.850;8.938;2023-08-20T09:43:09;27.30;99.90
7588;DHT22;3835;48.850;8.938;2023-08-20T09:45:37;27.30;99.90
7588;DHT22;3835;48.850;8.938;2023-08-20T09:48:08;27.30;99.90
7588;DHT22;3835;48.850;8.938;2023-08-20T09:50:36;27.40;99.90
7588;DHT22;3835;48.850;8.938;2023-08-20T09:53:15;27.50;99.90
7588;DHT22;3835;48.850;8.938;2023-08-20T09:55:43;27.60;99.90
7588;DHT22;3835;48.850;8.938;2023-08-20T09:58:11;27.80;99.90
7588;DHT22;3835;48.850;8.938;2023-08-20T10:00:39;27.70;99.90
7588;DHT22;3835;48.850;8.938;2023-08-20T10:03:05;27.70;99.90
7588;DHT22;3835;48.850;8.938;2023-08-20T10:05:34;27.80;99.90
7588;DHT22;3835;48.850;8.938;2023-08-20T10:08:02;27.80;99.90
7588;DHT22;3835;48.850;8.938;2023-08-20T10:10:29;27.80;99.90
7588;DHT22;3835;48.850;8.938;2023-08-20T10:12:56;27.70;99.90
7588;DHT22;3835;48.850;8.938;2023-08-20T10:15:23;27.70;99.90
7588;DHT22;3835;48.850;8.938;2023-08-20T10:17:52;27.80;99.90
7588;DHT22;3835;48.850;8.938;2023-08-20T10:20:19;27.70;99.90
7588;DHT22;3835;48.850;8.938;2023-08-20T10:22:50;27.60;99.90
7588;DHT22;3835;48.850;8.938;2023-08-20T10:25:22;27.70;99.90
7588;DHT22;3835;48.850;8.938;2023-08-20T10:27:51;27.70;99.90
7588;DHT22;3835;48.850;8.938;2023-08-20T10:30:20;27.80;99.90
7588;DHT22;3835;48.850;8.938;2023-08-20T10:32:51;27.70;99.90
7588;DHT22;3835;48.850;8.938;2023-08-20T10:35:23;27.70;99.90
7588;DHT22;3835;48.850;8.938;2023-08-20T10:38:07;27.60;99.90
7588;DHT22;3835;48.850;8.938;2023-08-20T10:40:56;27.70;99.90
7588;DHT22;3835;48.850;8.938;2023-08-20T10:43:33;27.80;99.90
7588;DHT22;3835;48.850;8.938;2023-08-20T10:46:08;27.70;99.90
7588;DHT22;3835;48.850;8.938;2023-08-20T10:48:40;27.70;99.90
7588;DHT22;3835;48.850;8.938;2023-08-20T10:51:11;27.80;99.90
7588;DHT22;3835;48.850;8.938;2023-08-20T10:53:40;27.90;99.90
7588;DHT22;3835;48.850;8.938;2023-08-20T10:56:08;27.90;99.90
7588;DHT22;3835;48.850;8.938;2023-08-20T10:58:35;27.90;99.90
7588;DHT22;3835;48.850;8.938;2023-08-20T11:01:19;27.90;99.90
7588;DHT22;3835;48.850;8.938;2023-08-20T11:03:48;28.00;99.90
7588;DHT22;3835;48.850;8.938;2023-08-20T11:06:15;28.10;99.90
7588;DHT22;3835;48.850;8.938;2023-08-20T11:08:44;28.30;99.90
7588;DHT22;3835;48.850;8.938;2023-08-20T11:11:11;28.30;99.90
7588;DHT22;3835;48.850;8.938;2023-08-20T11:13:38;28.20;99.90
7588;DHT22;3835;48.850;8.938;2023-08-20T11:16:06;28.20;99.90
7588;DHT22;3835;48.850;8.938;2023-08-20T11:18:34;28.30;99.90
7588;DHT22;3835;48.850;8.938;2023-08-20T11:21:01;28.50;99.90
7588;DHT22;3835;48.850;8.938;2023-08-20T11:23:28;28.60;99.90
7588;DHT22;3835;48.850;8.938;2023-08-20T11:25:57;28.50;99.90
7588;DHT22;3835;48.850;8.938;2023-08-20T11:28:25;28.50;99.90
7588;DHT22;3835;48.850;8.938;2023-08-20T11:30:53;28.70;99.90
7588;DHT22;3835;48.850;8.938;2023-08-20T11:33:21;28.60;99.90
7588;DHT22;3835;48.850;8.938;2023-08-20T11:35:48;28.70;99.90
7588;DHT22;3835;48.850;8.938;2023-08-20T11:38:14;28.80;99.90
7588;DHT22;3835;48.850;8.938;2023-08-20T11:40:41;28.80;99.90
7588;DHT22;3835;48.850;8.938;2023-08-20T11:43:10;28.70;99.90
7588;DHT22;3835;48.850;8.938;2023-08-20T11:45:44;28.80;99.90
7588;DHT22;3835;48.850;8.938;2023-08-20T11:48:11;28.90;99.90
7588;DHT22;3835;48.850;8.938;2023-08-20T11:50:38;29.00;99.90
7588;DHT22;3835;48.850;8.938;2023-08-20T11:53:06;29.10;99.90
7588;DHT22;3835;48.850;8.938;2023-08-20T11:55:33;29.20;99.90
7588;DHT22;3835;48.850;8.938;2023-08-20T11:58:00;29.20;99.90
7588;DHT22;3835;48.850;8.938;2023-08-20T12:00:30;29.20;99.90
7588;DHT22;3835;48.850;8.938;2023-08-20T12:02:58;29.10;99.90
7588;DHT22;3835;48.850;8.938;2023-08-20T12:05:26;29.10;99.90
7588;DHT22;3835;48.850;8.938;2023-08-20T12:07:57;29.40;99.90
7588;DHT22;3835;48.850;8.938;2023-08-20T12:10:24;29.50;99.90
7588;DHT22;3835;48.850;8.938;2023-08-20T12:12:51;29.50;99.90
7588;DHT22;3835;48.850;8.938;2023-08-20T12:15:19;29.70;99.90
7588;DHT22;3835;48.850;8.938;2023-08-20T12:17:57;29.80;99.90
7588;DHT22;3835;48.850;8.938;2023-08-20T12:20:27;29.80;99.90
7588;DHT22;3835;48.850;8.938;2023-08-20T12:22:54;30.00;99.90
7588;DHT22;3835;48.850;8.938;2023-08-20T12:25:21;30.00;99.90
7588;DHT22;3835;48.850;8.938;2023-08-20T12:27:48;29.80;99.90
7588;DHT22;3835;48.850;8.938;2023-08-20T12:30:15;29.90;99.90
7588;DHT22;3835;48.850;8.938;2023-08-20T12:32:42;29.90;99.90
7588;DHT22;3835;48.850;8.938;2023-08-20T12:35:10;29.90;99.90
7588;DHT22;3835;48.850;8.938;2023-08-20T12:37:36;29.70;99.90
7588;DHT22;3835;48.850;8.938;2023-08-20T12:40:04;29.70;99.90
7588;DHT22;3835;48.850;8.938;2023-08-20T12:42:36;29.90;99.90
7588;DHT22;3835;48.850;8.938;2023-08-20T12:45:03;30.00;99.90
7588;DHT22;3835;48.850;8.938;2023-08-20T12:47:30;29.80;99.90
7588;DHT22;3835;48.850;8.938;2023-08-20T12:49:57;29.70;99.90
7588;DHT22;3835;48.850;8.938;2023-08-20T12:52:25;29.70;99.90
7588;DHT22;3835;48.850;8.938;2023-08-20T12:54:52;29.60;99.90
7588;DHT22;3835;48.850;8.938;2023-08-20T12:57:19;29.70;99.90
7588;DHT22;3835;48.850;8.938;2023-08-20T12:59:46;29.70;99.90
7588;DHT22;3835;48.850;8.938;2023-08-20T13:02:12;29.80;99.90
7588;DHT22;3835;48.850;8.938;2023-08-20T13:04:39;29.80;99.90
7588;DHT22;3835;48.850;8.938;2023-08-20T13:07:07;29.80;99.90
7588;DHT22;3835;48.850;8.938;2023-08-20T13:09:36;29.90;99.90
7588;DHT22;3835;48.850;8.938;2023-08-20T13:12:03;29.80;99.90
7588;DHT22;3835;48.850;8.938;2023-08-20T13:14:35;29.70;99.90
7588;DHT22;3835;48.850;8.938;2023-08-20T13:17:02;29.70;99.90
7588;DHT22;3835;48.850;8.938;2023-08-20T13:19:29;29.80;99.90
7588;DHT22;3835;48.850;8.938;2023-08-20T13:21:56;29.90;99.90
7588;DHT22;3835;48.850;8.938;2023-08-20T13:24:22;30.00;99.90
7588;DHT22;3835;48.850;8.938;2023-08-20T13:26:51;30.10;99.90
7588;DHT22;3835;48.850;8.938;2023-08-20T13:29:18;30.00;99.90
7588;DHT22;3835;48.850;8.938;2023-08-20T13:31:45;30.10;99.90
7588;DHT22;3835;48.850;8.938;2023-08-20T13:34:12;30.10;99.90
7588;DHT22;3835;48.850;8.938;2023-08-20T13:36:40;30.00;99.90
7588;DHT22;3835;48.850;8.938;2023-08-20T13:39:08;29.90;99.90
7588;DHT22;3835;48.850;8.938;2023-08-20T13:41:39;29.90;99.90
7588;DHT22;3835;48.850;8.938;2023-08-20T13:44:07;30.00;99.90
7588;DHT22;3835;48.850;8.938;2023-08-20T13:46:34;29.90;99.90
7588;DHT22;3835;48.850;8.938;2023-08-20T13:49:01;29.80;99.90
7588;DHT22;3835;48.850;8.938;2023-08-20T13:51:28;29.80;99.90
7588;DHT22;3835;48.850;8.938;2023-08-20T13:53:55;29.80;99.90
7588;DHT22;3835;48.850;8.938;2023-08-20T13:56:22;29.80;99.90
7588;DHT22;3835;48.850;8.938;2023-08-20T13:58:49;29.90;99.90
7588;DHT22;3835;48.850;8.938;2023-08-20T14:01:17;29.80;99.90
7588;DHT22;3835;48.850;8.938;2023-08-20T14:03:44;29.70;99.90
7588;DHT22;3835;48.850;8.938;2023-08-20T14:06:11;29.80;99.90
7588;DHT22;3835;48.850;8.938;2023-08-20T14:08:38;30.10;99.90
7588;DHT22;3835;48.850;8.938;2023-08-20T14:11:05;30.20;99.90
7588;DHT22;3835;48.850;8.938;2023-08-20T14:13:31;30.20;99.90
7588;DHT22;3835;48.850;8.938;2023-08-20T14:15:58;30.20;99.90
7588;DHT22;3835;48.850;8.938;2023-08-20T14:18:27;30.20;99.90
7588;DHT22;3835;48.850;8.938;2023-08-20T14:20:55;30.20;99.90
7588;DHT22;3835;48.850;8.938;2023-08-20T14:23:21;30.20;99.90
7588;DHT22;3835;48.850;8.938;2023-08-20T14:25:48;30.30;99.90
7588;DHT22;3835;48.850;8.938;2023-08-20T14:28:15;30.40;99.90
7588;DHT22;3835;48.850;8.938;2023-08-20T14:30:42;30.60;99.90
7588;DHT22;3835;48.850;8.938;2023-08-20T14:33:08;30.70;99.90
7588;DHT22;3835;48.850;8.938;2023-08-20T14:35:36;30.70;99.90
7588;DHT22;3835;48.850;8.938;2023-08-20T14:38:04;30.70;99.90
7588;DHT22;3835;48.850;8.938;2023-08-20T14:40:30;30.30;99.90
7588;DHT22;3835;48.850;8.938;2023-08-20T14:42:59;30.10;99.90
7588;DHT22;3835;48.850;8.938;2023-08-20T14:45:28;30.00;99.90
7588;DHT22;3835;48.850;8.938;2023-08-20T14:47:56;29.90;99.90
7588;DHT22;3835;48.850;8.938;2023-08-20T14:50:24;29.90;99.90
7588;DHT22;3835;48.850;8.938;2023-08-20T14:52:52;29.90;99.90
7588;DHT22;3835;48.850;8.938;2023-08-20T14:55:19;30.00;99.90
7588;DHT22;3835;48.850;8.938;2023-08-20T14:57:46;30.00;99.90
7588;DHT22;3835;48.850;8.938;2023-08-20T15:00:14;30.00;99.90
7588;DHT22;3835;48.850;8.938;2023-08-20T15:02:41;30.10;99.90
7588;DHT22;3835;48.850;8.938;2023-08-20T15:05:09;30.50;99.90
7588;DHT22;3835;48.850;8.938;2023-08-20T15:07:36;30.80;99.90
7588;DHT22;3835;48.850;8.938;2023-08-20T15:10:05;30.70;99.90
7588;DHT22;3835;48.850;8.938;2023-08-20T15:12:33;30.90;99.90
7588;DHT22;3835;48.850;8.938;2023-08-20T15:15:00;30.90;99.90
7588;DHT22;3835;48.850;8.938;2023-08-20T15:17:26;30.70;99.90
7588;DHT22;3835;48.850;8.938;2023-08-20T15:19:56;30.60;99.90
7588;DHT22;3835;48.850;8.938;2023-08-20T15:22:25;30.70;99.90
7588;DHT22;3835;48.850;8.938;2023-08-20T15:24:52;30.70;99.90
7588;DHT22;3835;48.850;8.938;2023-08-20T15:27:23;30.40;99.90
7588;DHT22;3835;48.850;8.938;2023-08-20T15:29:50;30.40;99.90
7588;DHT22;3835;48.850;8.938;2023-08-20T15:32:16;30.30;99.90
7588;DHT22;3835;48.850;8.938;2023-08-20T15:34:43;30.30;99.90
7588;DHT22;3835;48.850;8.938;2023-08-20T15:37:10;30.20;99.90
7588;DHT22;3835;48.850;8.938;2023-08-20T15:39:38;29.90;99.90
7588;DHT22;3835;48.850;8.938;2023-08-20T15:42:05;30.10;99.90
7588;DHT22;3835;48.850;8.938;2023-08-20T15:44:34;30.00;99.90
7588;DHT22;3835;48.850;8.938;2023-08-20T15:47:00;30.20;99.90
7588;DHT22;3835;48.850;8.938;2023-08-20T15:49:28;30.30;99.90
7588;DHT22;3835;48.850;8.938;2023-08-20T15:51:57;30.40;99.90
7588;DHT22;3835;48.850;8.938;2023-08-20T15:54:23;30.20;99.90
7588;DHT22;3835;48.850;8.938;2023-08-20T15:56:51;30.10;99.90
7588;DHT22;3835;48.850;8.938;2023-08-20T15:59:18;30.20;99.90
7588;DHT22;3835;48.850;8.938;2023-08-20T16:01:46;30.40;99.90
7588;DHT22;3835;48.850;8.938;2023-08-20T16:04:13;30.40;99.90
7588;DHT22;3835;48.850;8.938;2023-08-20T16:06:40;30.40;99.90
7588;DHT22;3835;48.850;8.938;2023-08-20T16:09:07;30.40;99.90